sensor_id;sensor_type;location;lat;lon;timestamp;P1;durP1;ratioP1;P2;durP2;ratioP2
73599;SDS011;61877;48.246;9.220;2023-04-12T00:01:55;8.30;;;3.58;;
73599;SDS011;61877;48.246;9.220;2023-04-12T00:04:20;8.57;;;3.60;;
73599;SDS011;61877;48.246;9.220;2023-04-12T00:06:46;9.33;;;3.47;;
73599;SDS011;61877;48.246;9.220;2023-04-12T00:09:12;8.45;;;3.60;;
73599;SDS011;61877;48.246;9.220;2023-04-12T00:11:38;7.90;;;3.37;;
73599;SDS011;61877;48.246;9.220;2023-04-12T00:14:04;8.57;;;3.30;;
73599;SDS011;61877;48.246;9.220;2023-04-12T00:16:32;11.40;;;3.70;;
73599;SDS011;61877;48.246;9.220;2023-04-12T00:18:59;11.48;;;4.47;;
73599;SDS011;61877;48.246;9.220;2023-04-12T00:21:25;9.75;;;4.18;;
73599;SDS011;61877;48.246;9.220;2023-04-12T00:23:52;9.07;;;3.90;;
73599;SDS011;61877;48.246;9.220;2023-04-12T00:26:19;9.98;;;4.38;;
73599;SDS011;61877;48.246;9.220;2023-04-12T00:28:46;10.25;;;4.43;;
73599;SDS011;61877;48.246;9.220;2023-04-12T00:31:12;9.93;;;4.70;;
73599;SDS011;61877;48.246;9.220;2023-04-12T00:33:41;10.75;;;4.20;;
73599;SDS011;61877;48.246;9.220;2023-04-12T00:36:08;10.50;;;4.57;;
73599;SDS011;61877;48.246;9.220;2023-04-12T00:38:35;9.27;;;4.47;;
73599;SDS011;61877;48.246;9.220;2023-04-12T00:41:01;10.20;;;4.90;;
73599;SDS011;61877;48.246;9.220;2023-04-12T00:43:28;9.47;;;4.37;;
73599;SDS011;61877;48.246;9.220;2023-04-12T00:45:54;10.13;;;4.32;;
73599;SDS011;61877;48.246;9.220;2023-04-12T00:48:21;9.82;;;4.18;;
73599;SDS011;61877;48.246;9.220;2023-04-12T00:50:50;10.32;;;4.13;;
73599;SDS011;61877;48.246;9.220;2023-04-12T00:53:16;10.10;;;4.28;;
73599;SDS011;61877;48.246;9.220;2023-04-12T00:55:43;9.10;;;4.70;;
73599;SDS011;61877;48.246;9.220;2023-04-12T00:58:12;10.55;;;4.53;;
73599;SDS011;61877;48.246;9.220;2023-04-12T01:00:37;8.98;;;4.00;;
73599;SDS011;61877;48.246;9.220;2023-04-12T01:03:03;8.30;;;3.50;;
73599;SDS011;61877;48.246;9.220;2023-04-12T01:05:29;8.15;;;3.70;;
73599;SDS011;61877;48.246;9.220;2023-04-12T01:08:01;7.70;;;3.42;;
73599;SDS011;61877;48.246;9.220;2023-04-12T01:10:36;9.33;;;3.90;;
73599;SDS011;61877;48.246;9.220;2023-04-12T01:13:14;8.00;;;3.42;;
73599;SDS011;61877;48.246;9.220;2023-04-12T01:15:49;8.75;;;3.85;;
73599;SDS011;61877;48.246;9.220;2023-04-12T01:18:23;7.78;;;3.60;;
73599;SDS011;61877;48.246;9.220;2023-04-12T01:20:53;9.93;;;3.60;;
73599;SDS011;61877;48.246;9.220;2023-04-12T01:23:46;8.00;;;3.70;;
73599;SDS011;61877;48.246;9.220;2023-04-12T01:29:10;7.97;;;3.35;;
73599;SDS011;61877;48.246;9.220;2023-04-12T01:31:38;7.15;;;3.20;;
73599;SDS011;61877;48.246;9.220;2023-04-12T01:34:07;7.07;;;3.20;;
73599;SDS011;61877;48.246;9.220;2023-04-12T01:36:34;8.57;;;3.70;;
73599;SDS011;61877;48.246;9.220;2023-04-12T01:39:02;8.77;;;3.60;;
73599;SDS011;61877;48.246;9.220;2023-04-12T01:41:31;8.60;;;3.80;;
73599;SDS011;61877;48.246;9.220;2023-04-12T01:43:57;8.00;;;3.90;;
73599;SDS011;61877;48.246;9.220;2023-04-12T01:46:28;7.60;;;3.40;;
73599;SDS011;61877;48.246;9.220;2023-04-12T01:48:54;7.93;;;3.70;;
73599;SDS011;61877;48.246;9.220;2023-04-12T01:51:24;7.93;;;3.42;;
73599;SDS011;61877;48.246;9.220;2023-04-12T01:53:59;7.32;;;3.30;;
73599;SDS011;61877;48.246;9.220;2023-04-12T01:56:32;7.70;;;3.47;;
73599;SDS011;61877;48.246;9.220;2023-04-12T01:59:01;7.43;;;3.30;;
73599;SDS011;61877;48.246;9.220;2023-04-12T02:01:29;8.10;;;3.47;;
73599;SDS011;61877;48.246;9.220;2023-04-12T02:03:55;7.20;;;3.25;;
73599;SDS011;61877;48.246;9.220;2023-04-12T02:06:23;7.97;;;2.83;;
73599;SDS011;61877;48.246;9.220;2023-04-12T02:08:51;7.40;;;3.00;;
73599;SDS011;61877;48.246;9.220;2023-04-12T02:11:22;7.53;;;3.00;;
73599;SDS011;61877;48.246;9.220;2023-04-12T02:13:48;7.80;;;3.03;;
73599;SDS011;61877;48.246;9.220;2023-04-12T02:16:15;7.53;;;2.70;;
73599;SDS011;61877;48.246;9.220;2023-04-12T02:18:45;6.90;;;2.80;;
73599;SDS011;61877;48.246;9.220;2023-04-12T02:21:11;7.45;;;2.90;;
73599;SDS011;61877;48.246;9.220;2023-04-12T02:23:36;7.80;;;2.73;;
73599;SDS011;61877;48.246;9.220;2023-04-12T02:26:02;7.68;;;3.10;;
73599;SDS011;61877;48.246;9.220;2023-04-12T02:28:28;6.93;;;3.00;;
73599;SDS011;61877;48.246;9.220;2023-04-12T02:30:54;7.65;;;3.53;;
73599;SDS011;61877;48.246;9.220;2023-04-12T02:33:19;7.73;;;3.13;;
73599;SDS011;61877;48.246;9.220;2023-04-12T02:35:46;7.57;;;3.17;;
73599;SDS011;61877;48.246;9.220;2023-04-12T02:38:11;7.50;;;3.08;;
73599;SDS011;61877;48.246;9.220;2023-04-12T02:40:37;7.43;;;3.40;;
73599;SDS011;61877;48.246;9.220;2023-04-12T02:43:04;7.72;;;3.63;;
73599;SDS011;61877;48.246;9.220;2023-04-12T02:45:32;7.50;;;3.38;;
73599;SDS011;61877;48.246;9.220;2023-04-12T02:48:04;7.28;;;3.30;;
73599;SDS011;61877;48.246;9.220;2023-04-12T02:50:30;7.50;;;3.28;;
73599;SDS011;61877;48.246;9.220;2023-04-12T02:52:57;8.00;;;3.47;;
73599;SDS011;61877;48.246;9.220;2023-04-12T02:55:24;7.30;;;3.33;;
73599;SDS011;61877;48.246;9.220;2023-04-12T02:57:49;7.22;;;3.28;;
73599;SDS011;61877;48.246;9.220;2023-04-12T03:00:15;7.17;;;3.23;;
73599;SDS011;61877;48.246;9.220;2023-04-12T03:02:41;7.57;;;3.03;;
73599;SDS011;61877;48.246;9.220;2023-04-12T03:05:07;8.43;;;3.53;;
73599;SDS011;61877;48.246;9.220;2023-04-12T03:07:33;7.50;;;3.38;;
73599;SDS011;61877;48.246;9.220;2023-04-12T03:10:02;7.50;;;3.20;;
73599;SDS011;61877;48.246;9.220;2023-04-12T03:12:31;7.82;;;3.20;;
73599;SDS011;61877;48.246;9.220;2023-04-12T03:14:57;8.23;;;3.53;;
73599;SDS011;61877;48.246;9.220;2023-04-12T03:17:23;8.52;;;3.55;;
73599;SDS011;61877;48.246;9.220;2023-04-12T03:19:50;7.70;;;3.28;;
73599;SDS011;61877;48.246;9.220;2023-04-12T03:22:15;8.23;;;3.17;;
73599;SDS011;61877;48.246;9.220;2023-04-12T03:24:41;8.07;;;3.33;;
73599;SDS011;61877;48.246;9.220;2023-04-12T03:27:11;7.88;;;3.80;;
73599;SDS011;61877;48.246;9.220;2023-04-12T03:29:37;8.27;;;3.58;;
73599;SDS011;61877;48.246;9.220;2023-04-12T03:32:04;8.10;;;3.40;;
73599;SDS011;61877;48.246;9.220;2023-04-12T03:34:30;7.87;;;3.23;;
73599;SDS011;61877;48.246;9.220;2023-04-12T03:36:56;9.23;;;3.50;;
73599;SDS011;61877;48.246;9.220;2023-04-12T03:39:23;8.00;;;3.40;;
73599;SDS011;61877;48.246;9.220;2023-04-12T03:41:50;7.30;;;3.47;;
73599;SDS011;61877;48.246;9.220;2023-04-12T03:44:18;8.38;;;3.42;;
73599;SDS011;61877;48.246;9.220;2023-04-12T03:46:44;9.45;;;3.72;;
73599;SDS011;61877;48.246;9.220;2023-04-12T03:49:10;8.13;;;3.83;;
73599;SDS011;61877;48.246;9.220;2023-04-12T03:51:37;8.83;;;4.03;;
73599;SDS011;61877;48.246;9.220;2023-04-12T03:54:03;8.80;;;3.90;;
73599;SDS011;61877;48.246;9.220;2023-04-12T03:56:29;8.10;;;3.80;;
73599;SDS011;61877;48.246;9.220;2023-04-12T03:58:55;7.70;;;3.77;;
73599;SDS011;61877;48.246;9.220;2023-04-12T04:01:22;8.45;;;3.65;;
73599;SDS011;61877;48.246;9.220;2023-04-12T04:03:47;8.30;;;3.57;;
73599;SDS011;61877;48.246;9.220;2023-04-12T04:06:13;8.43;;;3.40;;
73599;SDS011;61877;48.246;9.220;2023-04-12T04:08:41;8.13;;;3.20;;
73599;SDS011;61877;48.246;9.220;2023-04-12T04:11:07;7.80;;;3.47;;
73599;SDS011;61877;48.246;9.220;2023-04-12T04:13:32;8.02;;;3.70;;
73599;SDS011;61877;48.246;9.220;2023-04-12T04:16:01;8.00;;;3.47;;
73599;SDS011;61877;48.246;9.220;2023-04-12T04:18:30;7.22;;;3.30;;
73599;SDS011;61877;48.246;9.220;2023-04-12T04:20:58;7.30;;;3.35;;
73599;SDS011;61877;48.246;9.220;2023-04-12T04:23:24;7.97;;;3.20;;
73599;SDS011;61877;48.246;9.220;2023-04-12T04:25:51;7.32;;;3.40;;
73599;SDS011;61877;48.246;9.220;2023-04-12T04:28:19;7.22;;;3.20;;
73599;SDS011;61877;48.246;9.220;2023-04-12T04:30:46;7.50;;;3.25;;
73599;SDS011;61877;48.246;9.220;2023-04-12T04:33:12;7.23;;;2.93;;
73599;SDS011;61877;48.246;9.220;2023-04-12T04:35:41;8.23;;;3.10;;
73599;SDS011;61877;48.246;9.220;2023-04-12T04:38:09;7.45;;;3.58;;
73599;SDS011;61877;48.246;9.220;2023-04-12T04:40:36;8.47;;;3.57;;
73599;SDS011;61877;48.246;9.220;2023-04-12T04:43:04;8.93;;;3.75;;
73599;SDS011;61877;48.246;9.220;2023-04-12T04:45:31;9.93;;;4.30;;
73599;SDS011;61877;48.246;9.220;2023-04-12T04:47:57;8.38;;;3.45;;
73599;SDS011;61877;48.246;9.220;2023-04-12T04:50:23;7.90;;;2.87;;
73599;SDS011;61877;48.246;9.220;2023-04-12T04:52:51;6.93;;;2.97;;
73599;SDS011;61877;48.246;9.220;2023-04-12T04:57:53;7.50;;;2.90;;
73599;SDS011;61877;48.246;9.220;2023-04-12T05:02:03;7.60;;;2.72;;
73599;SDS011;61877;48.246;9.220;2023-04-12T05:03:15;7.73;;;3.03;;
73599;SDS011;61877;48.246;9.220;2023-04-12T05:05:43;7.05;;;2.95;;
73599;SDS011;61877;48.246;9.220;2023-04-12T05:08:23;6.53;;;2.90;;
73599;SDS011;61877;48.246;9.220;2023-04-12T05:10:56;6.47;;;2.75;;
73599;SDS011;61877;48.246;9.220;2023-04-12T05:13:52;6.82;;;3.00;;
73599;SDS011;61877;48.246;9.220;2023-04-12T05:22:34;6.80;;;2.70;;
73599;SDS011;61877;48.246;9.220;2023-04-12T05:25:31;6.32;;;2.60;;
73599;SDS011;61877;48.246;9.220;2023-04-12T05:28:00;6.30;;;2.60;;
73599;SDS011;61877;48.246;9.220;2023-04-12T05:33:35;6.63;;;3.00;;
73599;SDS011;61877;48.246;9.220;2023-04-12T05:36:17;7.15;;;2.60;;
73599;SDS011;61877;48.246;9.220;2023-04-12T05:44:37;5.90;;;2.40;;
73599;SDS011;61877;48.246;9.220;2023-04-12T05:47:06;8.95;;;3.60;;
73599;SDS011;61877;48.246;9.220;2023-04-12T05:49:36;10.48;;;3.60;;
73599;SDS011;61877;48.246;9.220;2023-04-12T05:52:15;13.38;;;6.03;;
73599;SDS011;61877;48.246;9.220;2023-04-12T05:54:54;6.93;;;3.03;;
73599;SDS011;61877;48.246;9.220;2023-04-12T05:57:22;8.87;;;3.90;;
73599;SDS011;61877;48.246;9.220;2023-04-12T05:59:48;6.68;;;2.85;;
73599;SDS011;61877;48.246;9.220;2023-04-12T06:05:24;7.20;;;2.80;;
73599;SDS011;61877;48.246;9.220;2023-04-12T06:07:58;7.68;;;3.03;;
73599;SDS011;61877;48.246;9.220;2023-04-12T06:10:40;7.37;;;2.80;;
73599;SDS011;61877;48.246;9.220;2023-04-12T06:13:19;6.78;;;2.80;;
73599;SDS011;61877;48.246;9.220;2023-04-12T06:15:48;7.75;;;3.00;;
73599;SDS011;61877;48.246;9.220;2023-04-12T06:18:14;6.50;;;2.70;;
73599;SDS011;61877;48.246;9.220;2023-04-12T06:20:39;7.60;;;3.10;;
73599;SDS011;61877;48.246;9.220;2023-04-12T06:23:04;6.77;;;2.83;;
73599;SDS011;61877;48.246;9.220;2023-04-12T06:25:30;6.90;;;3.03;;
73599;SDS011;61877;48.246;9.220;2023-04-12T06:27:55;9.57;;;3.73;;
73599;SDS011;61877;48.246;9.220;2023-04-12T06:33:37;10.52;;;4.20;;
73599;SDS011;61877;48.246;9.220;2023-04-12T06:39:05;7.67;;;3.20;;
73599;SDS011;61877;48.246;9.220;2023-04-12T06:41:47;8.75;;;3.45;;
73599;SDS011;61877;48.246;9.220;2023-04-12T06:44:14;6.63;;;2.73;;
73599;SDS011;61877;48.246;9.220;2023-04-12T06:46:41;7.30;;;2.70;;
73599;SDS011;61877;48.246;9.220;2023-04-12T06:49:06;6.93;;;2.88;;
73599;SDS011;61877;48.246;9.220;2023-04-12T06:51:32;6.83;;;2.87;;
73599;SDS011;61877;48.246;9.220;2023-04-12T06:53:57;8.10;;;2.93;;
73599;SDS011;61877;48.246;9.220;2023-04-12T06:56:23;6.93;;;2.90;;
73599;SDS011;61877;48.246;9.220;2023-04-12T06:58:52;7.83;;;3.10;;
73599;SDS011;61877;48.246;9.220;2023-04-12T07:01:17;7.22;;;3.30;;
73599;SDS011;61877;48.246;9.220;2023-04-12T07:03:47;7.57;;;3.27;;
73599;SDS011;61877;48.246;9.220;2023-04-12T07:06:12;6.10;;;2.72;;
73599;SDS011;61877;48.246;9.220;2023-04-12T07:08:38;6.33;;;2.57;;
73599;SDS011;61877;48.246;9.220;2023-04-12T07:11:04;6.13;;;2.50;;
73599;SDS011;61877;48.246;9.220;2023-04-12T07:13:32;6.70;;;2.90;;
73599;SDS011;61877;48.246;9.220;2023-04-12T07:16:01;6.83;;;2.73;;
73599;SDS011;61877;48.246;9.220;2023-04-12T07:18:27;6.95;;;2.00;;
73599;SDS011;61877;48.246;9.220;2023-04-12T07:20:55;6.88;;;2.53;;
73599;SDS011;61877;48.246;9.220;2023-04-12T07:23:22;7.10;;;2.50;;
73599;SDS011;61877;48.246;9.220;2023-04-12T07:25:48;6.67;;;2.43;;
73599;SDS011;61877;48.246;9.220;2023-04-12T07:28:15;6.20;;;2.40;;
73599;SDS011;61877;48.246;9.220;2023-04-12T07:30:43;5.80;;;2.28;;
73599;SDS011;61877;48.246;9.220;2023-04-12T07:33:09;5.80;;;2.30;;
73599;SDS011;61877;48.246;9.220;2023-04-12T07:35:35;6.10;;;2.70;;
73599;SDS011;61877;48.246;9.220;2023-04-12T07:38:01;8.00;;;3.45;;
73599;SDS011;61877;48.246;9.220;2023-04-12T07:40:27;6.57;;;2.92;;
73599;SDS011;61877;48.246;9.220;2023-04-12T07:42:52;6.67;;;2.73;;
73599;SDS011;61877;48.246;9.220;2023-04-12T07:45:18;7.07;;;2.90;;
73599;SDS011;61877;48.246;9.220;2023-04-12T07:47:47;6.70;;;2.80;;
73599;SDS011;61877;48.246;9.220;2023-04-12T07:50:18;6.43;;;2.60;;
73599;SDS011;61877;48.246;9.220;2023-04-12T07:52:44;8.88;;;3.65;;
73599;SDS011;61877;48.246;9.220;2023-04-12T07:55:12;9.93;;;4.50;;
73599;SDS011;61877;48.246;9.220;2023-04-12T07:57:41;10.63;;;4.95;;
73599;SDS011;61877;48.246;9.220;2023-04-12T08:00:07;17.27;;;5.83;;
73599;SDS011;61877;48.246;9.220;2023-04-12T08:02:33;14.50;;;4.90;;
73599;SDS011;61877;48.246;9.220;2023-04-12T08:05:02;11.30;;;4.10;;
73599;SDS011;61877;48.246;9.220;2023-04-12T08:07:28;9.32;;;3.75;;
73599;SDS011;61877;48.246;9.220;2023-04-12T08:09:53;14.17;;;5.43;;
73599;SDS011;61877;48.246;9.220;2023-04-12T08:12:22;14.80;;;5.03;;
73599;SDS011;61877;48.246;9.220;2023-04-12T08:14:48;10.53;;;4.33;;
73599;SDS011;61877;48.246;9.220;2023-04-12T08:17:14;9.27;;;4.10;;
73599;SDS011;61877;48.246;9.220;2023-04-12T08:19:40;11.40;;;4.73;;
73599;SDS011;61877;48.246;9.220;2023-04-12T08:22:09;8.80;;;3.83;;
73599;SDS011;61877;48.246;9.220;2023-04-12T08:24:35;10.80;;;4.45;;
73599;SDS011;61877;48.246;9.220;2023-04-12T08:27:01;9.93;;;4.53;;
73599;SDS011;61877;48.246;9.220;2023-04-12T08:29:28;9.07;;;3.90;;
73599;SDS011;61877;48.246;9.220;2023-04-12T08:31:55;12.45;;;5.07;;
73599;SDS011;61877;48.246;9.220;2023-04-12T08:34:21;8.32;;;3.63;;
73599;SDS011;61877;48.246;9.220;2023-04-12T08:36:47;14.47;;;6.63;;
73599;SDS011;61877;48.246;9.220;2023-04-12T08:39:14;9.20;;;4.40;;
73599;SDS011;61877;48.246;9.220;2023-04-12T08:41:42;7.95;;;3.38;;
73599;SDS011;61877;48.246;9.220;2023-04-12T08:44:13;7.72;;;3.60;;
73599;SDS011;61877;48.246;9.220;2023-04-12T08:46:43;7.70;;;3.28;;
73599;SDS011;61877;48.246;9.220;2023-04-12T08:49:12;7.70;;;3.13;;
73599;SDS011;61877;48.246;9.220;2023-04-12T08:51:40;7.13;;;3.00;;
73599;SDS011;61877;48.246;9.220;2023-04-12T08:54:09;8.20;;;3.90;;
73599;SDS011;61877;48.246;9.220;2023-04-12T08:56:35;8.57;;;3.22;;
73599;SDS011;61877;48.246;9.220;2023-04-12T08:59:02;7.85;;;3.50;;
73599;SDS011;61877;48.246;9.220;2023-04-12T09:01:28;7.82;;;3.80;;
73599;SDS011;61877;48.246;9.220;2023-04-12T09:04:04;8.60;;;3.60;;
73599;SDS011;61877;48.246;9.220;2023-04-12T09:06:30;8.10;;;3.40;;
73599;SDS011;61877;48.246;9.220;2023-04-12T09:08:59;7.60;;;3.40;;
73599;SDS011;61877;48.246;9.220;2023-04-12T09:11:25;7.97;;;3.05;;
73599;SDS011;61877;48.246;9.220;2023-04-12T09:13:53;8.85;;;3.70;;
73599;SDS011;61877;48.246;9.220;2023-04-12T09:16:35;7.63;;;3.60;;
73599;SDS011;61877;48.246;9.220;2023-04-12T09:19:03;8.43;;;3.50;;
73599;SDS011;61877;48.246;9.220;2023-04-12T09:21:35;8.07;;;3.30;;
73599;SDS011;61877;48.246;9.220;2023-04-12T09:24:15;7.60;;;3.50;;
73599;SDS011;61877;48.246;9.220;2023-04-12T09:26:45;8.40;;;3.70;;
73599;SDS011;61877;48.246;9.220;2023-04-12T09:29:20;7.77;;;3.40;;
73599;SDS011;61877;48.246;9.220;2023-04-12T09:31:55;7.93;;;3.75;;
73599;SDS011;61877;48.246;9.220;2023-04-12T09:34:26;8.05;;;3.40;;
73599;SDS011;61877;48.246;9.220;2023-04-12T09:36:52;8.07;;;3.60;;
73599;SDS011;61877;48.246;9.220;2023-04-12T09:39:19;9.47;;;3.70;;
73599;SDS011;61877;48.246;9.220;2023-04-12T09:42:02;8.93;;;3.60;;
73599;SDS011;61877;48.246;9.220;2023-04-12T09:44:29;8.80;;;3.70;;
73599;SDS011;61877;48.246;9.220;2023-04-12T09:46:54;7.90;;;3.50;;
73599;SDS011;61877;48.246;9.220;2023-04-12T09:49:20;8.17;;;3.67;;
73599;SDS011;61877;48.246;9.220;2023-04-12T09:55:00;8.38;;;3.60;;
73599;SDS011;61877;48.246;9.220;2023-04-12T09:57:36;8.30;;;3.50;;
73599;SDS011;61877;48.246;9.220;2023-04-12T10:00:05;8.23;;;3.43;;
73599;SDS011;61877;48.246;9.220;2023-04-12T10:02:32;9.35;;;3.70;;
73599;SDS011;61877;48.246;9.220;2023-04-12T10:05:02;8.80;;;4.10;;
73599;SDS011;61877;48.246;9.220;2023-04-12T10:07:31;8.57;;;3.70;;
73599;SDS011;61877;48.246;9.220;2023-04-12T10:10:06;8.95;;;4.03;;
73599;SDS011;61877;48.246;9.220;2023-04-12T10:12:32;9.57;;;4.30;;
73599;SDS011;61877;48.246;9.220;2023-04-12T10:15:09;8.57;;;4.32;;
73599;SDS011;61877;48.246;9.220;2023-04-12T10:17:35;9.25;;;4.18;;
73599;SDS011;61877;48.246;9.220;2023-04-12T10:20:10;9.88;;;4.20;;
73599;SDS011;61877;48.246;9.220;2023-04-12T10:22:38;9.95;;;4.50;;
73599;SDS011;61877;48.246;9.220;2023-04-12T10:25:10;8.93;;;4.00;;
73599;SDS011;61877;48.246;9.220;2023-04-12T10:27:38;9.30;;;4.40;;
73599;SDS011;61877;48.246;9.220;2023-04-12T10:30:23;9.35;;;4.55;;
73599;SDS011;61877;48.246;9.220;2023-04-12T10:35:52;9.32;;;4.13;;
73599;SDS011;61877;48.246;9.220;2023-04-12T10:38:23;8.50;;;4.20;;
73599;SDS011;61877;48.246;9.220;2023-04-12T10:43:47;9.82;;;4.45;;
73599;SDS011;61877;48.246;9.220;2023-04-12T10:49:15;8.30;;;3.70;;
73599;SDS011;61877;48.246;9.220;2023-04-12T10:54:40;9.15;;;4.07;;
73599;SDS011;61877;48.246;9.220;2023-04-12T10:57:05;9.05;;;3.60;;
73599;SDS011;61877;48.246;9.220;2023-04-12T10:59:52;7.93;;;3.50;;
73599;SDS011;61877;48.246;9.220;2023-04-12T11:02:18;8.93;;;4.40;;
73599;SDS011;61877;48.246;9.220;2023-04-12T11:07:39;9.40;;;3.78;;
73599;SDS011;61877;48.246;9.220;2023-04-12T11:10:11;9.05;;;3.97;;
73599;SDS011;61877;48.246;9.220;2023-04-12T11:12:37;8.30;;;3.77;;
73599;SDS011;61877;48.246;9.220;2023-04-12T11:15:03;9.32;;;3.60;;
73599;SDS011;61877;48.246;9.220;2023-04-12T11:17:32;8.45;;;3.85;;
73599;SDS011;61877;48.246;9.220;2023-04-12T11:19:58;7.40;;;3.50;;
73599;SDS011;61877;48.246;9.220;2023-04-12T11:22:25;7.60;;;3.20;;
73599;SDS011;61877;48.246;9.220;2023-04-12T11:24:54;7.95;;;3.55;;
73599;SDS011;61877;48.246;9.220;2023-04-12T11:27:21;8.68;;;3.67;;
73599;SDS011;61877;48.246;9.220;2023-04-12T11:29:51;7.47;;;2.70;;
73599;SDS011;61877;48.246;9.220;2023-04-12T11:32:18;8.50;;;2.50;;
73599;SDS011;61877;48.246;9.220;2023-04-12T11:34:45;6.40;;;2.00;;
73599;SDS011;61877;48.246;9.220;2023-04-12T11:37:10;5.88;;;1.90;;
73599;SDS011;61877;48.246;9.220;2023-04-12T11:39:37;5.30;;;1.70;;
73599;SDS011;61877;48.246;9.220;2023-04-12T11:42:05;5.65;;;2.00;;
73599;SDS011;61877;48.246;9.220;2023-04-12T11:44:36;5.73;;;1.60;;
73599;SDS011;61877;48.246;9.220;2023-04-12T11:47:04;5.75;;;1.88;;
73599;SDS011;61877;48.246;9.220;2023-04-12T11:49:33;5.53;;;1.40;;
73599;SDS011;61877;48.246;9.220;2023-04-12T11:52:00;5.55;;;1.35;;
73599;SDS011;61877;48.246;9.220;2023-04-12T11:54:27;5.05;;;1.63;;
73599;SDS011;61877;48.246;9.220;2023-04-12T11:56:54;5.50;;;1.50;;
73599;SDS011;61877;48.246;9.220;2023-04-12T11:59:22;5.20;;;1.60;;
73599;SDS011;61877;48.246;9.220;2023-04-12T12:01:55;5.00;;;1.50;;
73599;SDS011;61877;48.246;9.220;2023-04-12T12:04:22;5.03;;;1.40;;
73599;SDS011;61877;48.246;9.220;2023-04-12T12:06:52;5.00;;;1.77;;
73599;SDS011;61877;48.246;9.220;2023-04-12T12:09:22;5.45;;;1.33;;
73599;SDS011;61877;48.246;9.220;2023-04-12T12:11:48;5.07;;;1.30;;
73599;SDS011;61877;48.246;9.220;2023-04-12T12:14:17;5.17;;;1.50;;
73599;SDS011;61877;48.246;9.220;2023-04-12T12:16:44;5.07;;;1.60;;
73599;SDS011;61877;48.246;9.220;2023-04-12T12:19:21;4.80;;;1.40;;
73599;SDS011;61877;48.246;9.220;2023-04-12T12:21:51;5.18;;;1.30;;
73599;SDS011;61877;48.246;9.220;2023-04-12T12:24:16;5.63;;;1.27;;
73599;SDS011;61877;48.246;9.220;2023-04-12T12:26:43;5.37;;;1.60;;
73599;SDS011;61877;48.246;9.220;2023-04-12T12:29:15;5.32;;;1.52;;
73599;SDS011;61877;48.246;9.220;2023-04-12T12:31:45;6.57;;;2.25;;
73599;SDS011;61877;48.246;9.220;2023-04-12T12:34:14;5.10;;;1.67;;
73599;SDS011;61877;48.246;9.220;2023-04-12T12:36:40;5.00;;;1.60;;
73599;SDS011;61877;48.246;9.220;2023-04-12T12:39:06;5.57;;;1.70;;
73599;SDS011;61877;48.246;9.220;2023-04-12T12:41:34;5.00;;;1.60;;
73599;SDS011;61877;48.246;9.220;2023-04-12T12:44:01;5.05;;;1.30;;
73599;SDS011;61877;48.246;9.220;2023-04-12T12:46:28;5.00;;;1.40;;
73599;SDS011;61877;48.246;9.220;2023-04-12T12:48:59;6.38;;;2.17;;
73599;SDS011;61877;48.246;9.220;2023-04-12T12:51:25;11.82;;;5.85;;
73599;SDS011;61877;48.246;9.220;2023-04-12T12:53:51;8.75;;;3.88;;
73599;SDS011;61877;48.246;9.220;2023-04-12T12:56:16;4.77;;;1.40;;
73599;SDS011;61877;48.246;9.220;2023-04-12T12:58:42;5.18;;;1.45;;
73599;SDS011;61877;48.246;9.220;2023-04-12T13:01:08;4.90;;;1.10;;
73599;SDS011;61877;48.246;9.220;2023-04-12T13:03:33;4.60;;;1.30;;
73599;SDS011;61877;48.246;9.220;2023-04-12T13:06:00;4.70;;;1.20;;
73599;SDS011;61877;48.246;9.220;2023-04-12T13:08:26;5.20;;;1.33;;
73599;SDS011;61877;48.246;9.220;2023-04-12T13:10:51;5.13;;;1.63;;
73599;SDS011;61877;48.246;9.220;2023-04-12T13:13:17;6.35;;;2.00;;
73599;SDS011;61877;48.246;9.220;2023-04-12T13:15:43;5.00;;;1.40;;
73599;SDS011;61877;48.246;9.220;2023-04-12T13:18:08;4.70;;;1.33;;
73599;SDS011;61877;48.246;9.220;2023-04-12T13:20:33;5.25;;;1.30;;
73599;SDS011;61877;48.246;9.220;2023-04-12T13:23:00;4.43;;;1.00;;
73599;SDS011;61877;48.246;9.220;2023-04-12T13:25:26;4.30;;;1.10;;
73599;SDS011;61877;48.246;9.220;2023-04-12T13:27:51;5.90;;;1.03;;
73599;SDS011;61877;48.246;9.220;2023-04-12T13:30:17;4.80;;;1.48;;
73599;SDS011;61877;48.246;9.220;2023-04-12T13:32:45;4.67;;;1.30;;
73599;SDS011;61877;48.246;9.220;2023-04-12T13:35:10;4.70;;;1.30;;
73599;SDS011;61877;48.246;9.220;2023-04-12T13:37:36;5.73;;;1.30;;
73599;SDS011;61877;48.246;9.220;2023-04-12T13:40:03;5.32;;;1.35;;
73599;SDS011;61877;48.246;9.220;2023-04-12T13:42:31;7.33;;;2.90;;
73599;SDS011;61877;48.246;9.220;2023-04-12T13:44:56;5.55;;;1.30;;
73599;SDS011;61877;48.246;9.220;2023-04-12T13:47:22;5.63;;;2.00;;
73599;SDS011;61877;48.246;9.220;2023-04-12T13:49:48;4.90;;;1.50;;
73599;SDS011;61877;48.246;9.220;2023-04-12T13:52:14;5.22;;;1.30;;
73599;SDS011;61877;48.246;9.220;2023-04-12T13:54:40;5.00;;;1.42;;
73599;SDS011;61877;48.246;9.220;2023-04-12T13:57:07;4.80;;;1.40;;
73599;SDS011;61877;48.246;9.220;2023-04-12T13:59:33;4.88;;;1.50;;
73599;SDS011;61877;48.246;9.220;2023-04-12T14:02:00;5.55;;;1.60;;
73599;SDS011;61877;48.246;9.220;2023-04-12T14:04:27;4.78;;;1.45;;
73599;SDS011;61877;48.246;9.220;2023-04-12T14:06:55;5.65;;;1.70;;
73599;SDS011;61877;48.246;9.220;2023-04-12T14:09:21;4.87;;;1.30;;
73599;SDS011;61877;48.246;9.220;2023-04-12T14:11:48;4.82;;;1.10;;
73599;SDS011;61877;48.246;9.220;2023-04-12T14:14:16;4.70;;;1.30;;
73599;SDS011;61877;48.246;9.220;2023-04-12T14:16:42;5.18;;;1.58;;
73599;SDS011;61877;48.246;9.220;2023-04-12T14:19:09;6.93;;;1.50;;
73599;SDS011;61877;48.246;9.220;2023-04-12T14:21:37;5.00;;;1.60;;
73599;SDS011;61877;48.246;9.220;2023-04-12T14:24:03;5.93;;;2.00;;
73599;SDS011;61877;48.246;9.220;2023-04-12T14:26:28;6.40;;;2.03;;
73599;SDS011;61877;48.246;9.220;2023-04-12T14:28:54;5.90;;;2.00;;
73599;SDS011;61877;48.246;9.220;2023-04-12T14:31:22;5.00;;;1.53;;
73599;SDS011;61877;48.246;9.220;2023-04-12T14:33:49;4.80;;;1.40;;
73599;SDS011;61877;48.246;9.220;2023-04-12T14:36:15;4.80;;;1.58;;
73599;SDS011;61877;48.246;9.220;2023-04-12T14:38:41;5.35;;;1.50;;
73599;SDS011;61877;48.246;9.220;2023-04-12T14:41:06;5.37;;;1.30;;
73599;SDS011;61877;48.246;9.220;2023-04-12T14:43:32;5.32;;;1.38;;
73599;SDS011;61877;48.246;9.220;2023-04-12T14:45:58;5.00;;;1.33;;
73599;SDS011;61877;48.246;9.220;2023-04-12T14:48:26;4.57;;;1.25;;
73599;SDS011;61877;48.246;9.220;2023-04-12T14:50:52;5.43;;;1.33;;
73599;SDS011;61877;48.246;9.220;2023-04-12T14:53:21;5.30;;;1.40;;
73599;SDS011;61877;48.246;9.220;2023-04-12T14:55:46;5.13;;;1.17;;
73599;SDS011;61877;48.246;9.220;2023-04-12T14:58:12;5.65;;;1.60;;
73599;SDS011;61877;48.246;9.220;2023-04-12T15:00:38;4.93;;;1.53;;
73599;SDS011;61877;48.246;9.220;2023-04-12T15:03:04;5.13;;;1.30;;
73599;SDS011;61877;48.246;9.220;2023-04-12T15:07:58;5.22;;;1.38;;
73599;SDS011;61877;48.246;9.220;2023-04-12T15:10:23;5.80;;;2.00;;
73599;SDS011;61877;48.246;9.220;2023-04-12T15:12:51;6.70;;;2.20;;
73599;SDS011;61877;48.246;9.220;2023-04-12T15:15:20;4.80;;;1.50;;
73599;SDS011;61877;48.246;9.220;2023-04-12T15:17:45;5.13;;;1.60;;
73599;SDS011;61877;48.246;9.220;2023-04-12T15:20:19;5.10;;;1.67;;
73599;SDS011;61877;48.246;9.220;2023-04-12T15:22:48;5.35;;;1.65;;
73599;SDS011;61877;48.246;9.220;2023-04-12T15:25:13;5.47;;;1.50;;
73599;SDS011;61877;48.246;9.220;2023-04-12T15:27:39;4.90;;;1.45;;
73599;SDS011;61877;48.246;9.220;2023-04-12T15:30:08;5.43;;;1.80;;
73599;SDS011;61877;48.246;9.220;2023-04-12T15:32:35;5.55;;;2.30;;
73599;SDS011;61877;48.246;9.220;2023-04-12T15:35:00;5.03;;;1.43;;
73599;SDS011;61877;48.246;9.220;2023-04-12T15:37:26;4.78;;;1.20;;
73599;SDS011;61877;48.246;9.220;2023-04-12T15:39:55;4.70;;;1.40;;
73599;SDS011;61877;48.246;9.220;2023-04-12T15:42:24;5.13;;;1.30;;
73599;SDS011;61877;48.246;9.220;2023-04-12T15:44:50;5.68;;;1.50;;